createdAt,value
2022-11-20T00:00:59.927Z,7.95
2022-11-20T00:01:59.907Z,7.95
2022-11-20T00:02:59.851Z,7.93
2022-11-20T00:03:59.791Z,7.91
2022-11-20T00:04:59.744Z,8.02
2022-11-20T00:05:59.694Z,8.09
2022-11-20T00:06:59.671Z,8.03
2022-11-20T00:07:59.605Z,8.17
2022-11-20T00:08:59.573Z,8.11
2022-11-20T00:09:59.510Z,8.13
2022-11-20T00:10:59.491Z,8.23
2022-11-20T00:11:59.417Z,8.26
2022-11-20T00:12:59.371Z,8.28
2022-11-20T00:13:59.323Z,8.32
2022-11-20T00:14:59.288Z,8.34
2022-11-20T00:15:59.232Z,8.44
2022-11-20T00:16:59.181Z,8.49
2022-11-20T00:17:59.140Z,8.35
2022-11-20T00:18:59.094Z,8.50
2022-11-20T00:19:59.048Z,8.41
2022-11-20T00:20:59.019Z,8.41
2022-11-20T00:21:58.952Z,8.42
2022-11-20T00:22:58.902Z,8.44
2022-11-20T00:23:58.865Z,8.42
2022-11-20T00:24:58.809Z,8.39
2022-11-20T00:25:58.767Z,8.44
2022-11-20T00:26:58.738Z,8.49
2022-11-20T00:27:58.681Z,8.39
2022-11-20T00:28:58.629Z,8.36
2022-11-20T00:29:58.580Z,8.35
2022-11-20T00:30:58.539Z,8.44
2022-11-20T00:31:58.487Z,8.44
2022-11-20T00:32:58.463Z,8.54
2022-11-20T00:33:58.418Z,8.44
2022-11-20T00:34:58.354Z,8.42
2022-11-20T00:35:58.310Z,8.38
2022-11-20T00:36:58.263Z,8.46
2022-11-20T00:37:58.213Z,8.42
2022-11-20T00:38:58.306Z,8.41
2022-11-20T00:39:58.124Z,8.50
2022-11-20T00:40:58.075Z,8.49
2022-11-20T00:41:58.027Z,8.45
2022-11-20T00:42:57.979Z,8.56
2022-11-20T00:43:57.937Z,8.59
2022-11-20T00:44:57.905Z,8.59
2022-11-20T00:45:57.844Z,8.63
2022-11-20T00:46:57.797Z,8.74
2022-11-20T00:47:57.752Z,8.72
2022-11-20T00:48:57.709Z,8.74
2022-11-20T00:49:57.657Z,8.75
2022-11-20T00:50:57.641Z,8.78
2022-11-20T00:51:57.565Z,8.78
2022-11-20T00:52:57.519Z,8.86
2022-11-20T00:53:57.477Z,8.84
2022-11-20T00:54:57.428Z,8.86
2022-11-20T00:55:57.381Z,8.87
2022-11-20T00:56:57.365Z,8.82
2022-11-20T00:57:57.292Z,8.92
2022-11-20T00:58:57.265Z,9.02
2022-11-20T00:59:57.199Z,9.08
2022-11-20T01:00:57.174Z,9.02
2022-11-20T01:01:57.102Z,9.03
2022-11-20T01:02:57.066Z,9.03
2022-11-20T01:03:57.052Z,9.03
2022-11-20T01:04:56.972Z,9.05
2022-11-20T01:05:56.920Z,9.05
2022-11-20T01:06:56.989Z,9.08
2022-11-20T01:07:56.827Z,9.09
2022-11-20T01:08:56.783Z,9.09
2022-11-20T01:09:56.762Z,9.11
2022-11-20T01:10:56.692Z,9.05
2022-11-20T01:11:56.643Z,9.09
2022-11-20T01:12:56.599Z,9.11
2022-11-20T01:13:56.552Z,9.02
2022-11-20T01:14:56.511Z,9.12
2022-11-20T01:15:56.481Z,9.12
2022-11-20T01:16:56.419Z,9.12
2022-11-20T01:17:56.374Z,9.13
2022-11-20T01:18:56.322Z,9.09
2022-11-20T01:19:56.275Z,9.12
2022-11-20T01:20:56.258Z,9.13
2022-11-20T01:21:56.189Z,9.08
2022-11-20T01:22:56.140Z,9.05
2022-11-20T01:23:56.092Z,9.12
2022-11-20T01:24:56.046Z,9.09
2022-11-20T01:25:56.028Z,9.02
2022-11-20T01:26:55.950Z,9.11
2022-11-20T01:27:55.911Z,9.05
2022-11-20T01:28:55.861Z,9.12
2022-11-20T01:30:00.840Z,8.97
2022-11-20T01:30:55.792Z,8.92
2022-11-20T01:31:55.752Z,8.96
2022-11-20T01:32:55.679Z,8.92
2022-11-20T01:33:55.657Z,8.77
2022-11-20T01:34:55.612Z,8.86
2022-11-20T01:35:55.570Z,8.77
2022-11-20T01:36:55.491Z,8.87
2022-11-20T01:37:55.452Z,8.77
2022-11-20T01:38:55.402Z,8.82
2022-11-20T01:39:55.354Z,8.77
2022-11-20T01:40:55.328Z,8.78
2022-11-20T01:41:55.286Z,8.74
2022-11-20T01:42:55.220Z,8.77
2022-11-20T01:43:55.166Z,8.79
2022-11-20T01:44:55.126Z,8.75
2022-11-20T01:45:55.074Z,8.71
2022-11-20T01:46:55.026Z,8.75
2022-11-20T01:47:55.000Z,8.75
2022-11-20T01:48:54.936Z,8.71
2022-11-20T01:49:54.889Z,8.69
2022-11-20T01:50:54.844Z,8.68
2022-11-20T01:51:54.801Z,8.59
2022-11-20T01:52:54.749Z,8.71
2022-11-20T01:53:54.729Z,8.74
2022-11-20T01:54:54.659Z,8.79
2022-11-20T01:55:54.617Z,8.78
2022-11-20T01:56:54.594Z,8.75
2022-11-20T01:57:54.518Z,8.77
2022-11-20T01:58:54.473Z,8.75
2022-11-20T01:59:54.432Z,8.81
2022-11-20T02:00:54.453Z,8.84
2022-11-20T02:01:54.336Z,8.82
2022-11-20T02:02:54.292Z,8.84
2022-11-20T02:03:54.243Z,8.82
2022-11-20T02:04:54.198Z,8.86
2022-11-20T02:05:54.149Z,8.96
2022-11-20T02:06:54.158Z,8.96
2022-11-20T02:07:54.060Z,9.03
2022-11-20T02:08:54.015Z,8.84
2022-11-20T02:09:58.401Z,8.96
2022-11-20T02:10:53.919Z,9.03
2022-11-20T02:11:53.873Z,8.93
2022-11-20T02:12:53.844Z,9.00
2022-11-20T02:13:53.783Z,9.08
2022-11-20T02:14:53.735Z,9.13
2022-11-20T02:15:53.690Z,9.09
2022-11-20T02:16:53.640Z,9.16
2022-11-20T02:17:53.598Z,9.21
2022-11-20T02:18:53.573Z,9.16
2022-11-20T02:19:53.502Z,9.26
2022-11-20T02:20:53.455Z,9.16
2022-11-20T02:21:53.408Z,9.34
2022-11-20T02:22:53.364Z,9.30
2022-11-20T02:23:53.319Z,9.42
2022-11-20T02:24:53.295Z,9.37
2022-11-20T02:25:53.229Z,9.31
2022-11-20T02:26:53.184Z,9.27
2022-11-20T02:27:53.137Z,9.30
2022-11-20T02:28:53.086Z,9.39
2022-11-20T02:29:53.073Z,9.34
2022-11-20T02:30:52.996Z,9.36
2022-11-20T02:31:52.954Z,9.44
2022-11-20T02:32:52.904Z,9.37
2022-11-20T02:33:52.866Z,9.45
2022-11-20T02:34:52.816Z,9.44
2022-11-20T02:35:52.781Z,9.27
2022-11-20T02:36:52.719Z,9.44
2022-11-20T02:37:52.673Z,9.39
2022-11-20T02:38:52.631Z,9.36
2022-11-20T02:39:52.584Z,9.44
2022-11-20T02:40:55.566Z,9.44
2022-11-20T02:41:52.597Z,9.49
2022-11-20T02:42:52.442Z,9.42
2022-11-20T02:43:52.399Z,9.45
2022-11-20T02:44:52.350Z,9.55
2022-11-20T02:45:52.303Z,9.47
2022-11-20T02:46:52.253Z,9.51
2022-11-20T02:47:52.235Z,9.54
2022-11-20T02:48:52.168Z,9.56
2022-11-20T02:49:52.121Z,9.55
2022-11-20T02:50:52.075Z,9.44
2022-11-20T02:51:52.064Z,9.31
2022-11-20T02:52:51.982Z,9.40
2022-11-20T02:53:51.939Z,9.31
2022-11-20T02:54:51.888Z,9.37
2022-11-20T02:55:51.863Z,9.31
2022-11-20T02:56:51.794Z,9.22
2022-11-20T02:57:51.784Z,9.22
2022-11-20T02:58:51.703Z,9.31
2022-11-20T02:59:51.662Z,9.21
2022-11-20T03:00:51.675Z,9.26
2022-11-20T03:01:51.564Z,9.21
2022-11-20T03:02:51.518Z,9.15
2022-11-20T03:03:51.515Z,9.15
2022-11-20T03:04:51.426Z,9.12
2022-11-20T03:05:51.394Z,9.19
2022-11-20T03:06:51.334Z,9.16
2022-11-20T03:07:51.292Z,9.16
2022-11-20T03:08:51.246Z,9.16
2022-11-20T03:09:51.235Z,9.24
2022-11-20T03:10:51.153Z,9.18
2022-11-20T03:11:51.109Z,9.21
2022-11-20T03:12:51.060Z,9.22
2022-11-20T03:13:51.016Z,9.12
2022-11-20T03:14:53.256Z,9.30
2022-11-20T03:15:50.949Z,9.21
2022-11-20T03:16:50.880Z,9.24
2022-11-20T03:17:50.829Z,9.30
2022-11-20T03:18:50.783Z,9.30
2022-11-20T03:19:50.737Z,9.36
2022-11-20T03:20:50.689Z,9.39
2022-11-20T03:21:50.667Z,9.39
2022-11-20T03:22:50.598Z,9.29
2022-11-20T03:23:50.557Z,9.37
2022-11-20T03:24:50.505Z,9.40
2022-11-20T03:25:50.460Z,9.37
2022-11-20T03:26:50.420Z,9.30
2022-11-20T03:27:50.393Z,9.27
2022-11-20T03:28:50.345Z,9.19
2022-11-20T03:29:50.274Z,9.29
2022-11-20T03:30:50.245Z,9.21
2022-11-20T03:31:50.186Z,9.16
2022-11-20T03:32:50.134Z,9.27
2022-11-20T03:33:50.120Z,9.31
2022-11-20T03:34:50.072Z,9.19
2022-11-20T03:35:50.002Z,9.22
2022-11-20T03:36:49.951Z,9.16
2022-11-20T03:37:49.911Z,9.18
2022-11-20T03:38:49.862Z,9.16
2022-11-20T03:39:49.814Z,9.19
2022-11-20T03:40:49.802Z,9.36
2022-11-20T03:41:49.723Z,9.19
2022-11-20T03:42:49.699Z,9.34
2022-11-20T03:43:49.634Z,9.33
2022-11-20T03:44:49.586Z,9.30
2022-11-20T03:45:49.538Z,9.27
2022-11-20T03:46:49.516Z,9.33
2022-11-20T03:47:49.447Z,9.34
2022-11-20T03:48:52.012Z,9.22
2022-11-20T03:49:49.375Z,9.34
2022-11-20T03:50:49.305Z,9.31
2022-11-20T03:51:49.267Z,9.27
2022-11-20T03:52:49.218Z,9.34
2022-11-20T03:53:49.169Z,9.24
2022-11-20T03:54:49.127Z,9.29
2022-11-20T03:55:49.095Z,9.39
2022-11-20T03:56:49.054Z,9.29
2022-11-20T03:57:48.985Z,9.30
2022-11-20T03:58:48.941Z,9.31
2022-11-20T03:59:48.894Z,9.27
2022-11-20T04:00:48.846Z,9.30
2022-11-20T04:01:49.649Z,9.36
2022-11-20T04:02:48.777Z,9.33
2022-11-20T04:03:48.709Z,9.36
2022-11-20T04:04:48.664Z,9.34
2022-11-20T04:05:48.615Z,9.39
2022-11-20T04:06:48.573Z,9.36
2022-11-20T04:07:48.524Z,9.37
2022-11-20T04:08:53.342Z,9.31
2022-11-20T04:09:48.431Z,9.33
2022-11-20T04:10:48.392Z,9.36
2022-11-20T04:11:48.341Z,9.39
2022-11-20T04:12:48.334Z,9.27
2022-11-20T04:13:48.246Z,9.42
2022-11-20T04:14:48.231Z,9.31
2022-11-20T04:15:48.161Z,9.36
2022-11-20T04:16:48.107Z,9.31
2022-11-20T04:17:48.063Z,9.39
2022-11-20T04:18:48.019Z,9.42
2022-11-20T04:19:47.972Z,9.33
2022-11-20T04:20:47.960Z,9.34
2022-11-20T04:21:47.906Z,9.27
2022-11-20T04:22:47.834Z,9.40
2022-11-20T04:23:47.789Z,9.31
2022-11-20T04:24:47.742Z,9.36
2022-11-20T04:25:47.720Z,9.34
2022-11-20T04:26:47.651Z,9.22
2022-11-20T04:27:47.608Z,9.29
2022-11-20T04:28:47.558Z,9.22
2022-11-20T04:29:47.511Z,9.16
2022-11-20T04:30:47.466Z,9.11
2022-11-20T04:31:47.442Z,9.15
2022-11-20T04:32:47.376Z,9.19
2022-11-20T04:33:47.329Z,9.16
2022-11-20T04:34:47.281Z,9.12
2022-11-20T04:35:47.238Z,9.16
2022-11-20T04:36:47.194Z,9.11
2022-11-20T04:37:47.163Z,9.12
2022-11-20T04:38:47.098Z,9.09
2022-11-20T04:39:47.050Z,9.11
2022-11-20T04:40:47.003Z,9.08
2022-11-20T04:41:46.956Z,9.05
2022-11-20T04:42:46.914Z,9.09
2022-11-20T04:43:46.887Z,9.13
2022-11-20T04:44:46.824Z,9.08
2022-11-20T04:45:46.775Z,9.08
2022-11-20T04:46:46.758Z,9.09
2022-11-20T04:47:46.709Z,9.11
2022-11-20T04:48:46.637Z,9.00
2022-11-20T04:49:46.653Z,9.02
2022-11-20T04:50:46.550Z,9.02
2022-11-20T04:51:46.500Z,9.00
2022-11-20T04:52:46.455Z,9.00
2022-11-20T04:53:46.406Z,9.05
2022-11-20T04:54:46.374Z,9.00
2022-11-20T04:55:46.313Z,9.08
2022-11-20T04:56:46.274Z,9.08
2022-11-20T04:57:46.221Z,8.99
2022-11-20T04:58:46.177Z,9.00
2022-11-20T04:59:46.130Z,9.00
2022-11-20T05:00:46.129Z,9.02
2022-11-20T05:01:46.105Z,8.99
2022-11-20T05:02:45.992Z,9.08
2022-11-20T05:03:45.945Z,8.99
2022-11-20T05:04:45.897Z,8.99
2022-11-20T05:05:45.855Z,9.00
2022-11-20T05:06:45.832Z,8.97
2022-11-20T05:07:45.760Z,9.00
2022-11-20T05:08:45.716Z,9.03
2022-11-20T05:09:45.696Z,9.00
2022-11-20T05:10:45.631Z,9.02
2022-11-20T05:11:49.110Z,8.96
2022-11-20T05:12:45.533Z,9.00
2022-11-20T05:13:45.507Z,8.95
2022-11-20T05:14:45.440Z,8.99
2022-11-20T05:15:45.392Z,9.11
2022-11-20T05:16:45.344Z,9.02
2022-11-20T05:17:45.297Z,9.00
2022-11-20T05:18:45.258Z,9.05
2022-11-20T05:19:47.425Z,9.09
2022-11-20T05:20:45.161Z,8.99
2022-11-20T05:21:45.114Z,8.93
2022-11-20T05:22:45.071Z,8.97
2022-11-20T05:23:45.031Z,9.00
2022-11-20T05:24:44.983Z,9.09
2022-11-20T05:25:44.951Z,8.99
2022-11-20T05:26:44.883Z,8.99
2022-11-20T05:27:44.838Z,8.96
2022-11-20T05:28:44.794Z,8.96
2022-11-20T05:29:44.744Z,8.97
2022-11-20T05:30:44.699Z,9.08
2022-11-20T05:31:44.673Z,9.13
2022-11-20T05:32:44.606Z,9.05
2022-11-20T05:33:44.569Z,9.05
2022-11-20T05:34:44.517Z,9.03
2022-11-20T05:35:44.469Z,8.93
2022-11-20T05:36:44.427Z,8.89
2022-11-20T05:37:44.396Z,8.93
2022-11-20T05:38:44.331Z,9.00
2022-11-20T05:39:44.284Z,9.03
2022-11-20T05:40:44.237Z,8.99
2022-11-20T05:41:44.196Z,8.99
2022-11-20T05:42:44.143Z,9.09
2022-11-20T05:43:44.124Z,9.05
2022-11-20T05:44:44.053Z,9.13
2022-11-20T05:45:44.003Z,9.18
2022-11-20T05:46:43.961Z,9.18
2022-11-20T05:47:43.912Z,9.18
2022-11-20T05:48:43.868Z,9.21
2022-11-20T05:49:43.843Z,9.13
2022-11-20T05:50:43.780Z,9.13
2022-11-20T05:51:43.724Z,9.13
2022-11-20T05:52:43.681Z,9.05
2022-11-20T05:53:48.005Z,8.96
2022-11-20T05:54:43.607Z,8.92
2022-11-20T05:55:43.544Z,8.81
2022-11-20T05:56:43.495Z,8.82
2022-11-20T05:57:43.448Z,9.03
2022-11-20T05:58:43.407Z,8.99
2022-11-20T05:59:43.354Z,9.02
2022-11-20T06:03:47.668Z,8.77
2022-11-20T06:04:47.585Z,8.59
2022-11-20T06:05:47.539Z,8.64
2022-11-20T06:06:47.492Z,8.61
2022-11-20T06:07:47.444Z,8.50
2022-11-20T06:08:47.396Z,8.44
2022-11-20T06:09:47.365Z,8.49
2022-11-20T06:10:47.308Z,8.50
2022-11-20T06:11:47.262Z,8.42
2022-11-20T06:12:47.214Z,8.41
2022-11-20T06:13:47.165Z,8.38
2022-11-20T06:14:47.121Z,8.52
2022-11-20T06:15:47.260Z,8.49
2022-11-20T06:16:47.021Z,8.52
2022-11-20T06:17:46.975Z,8.53
2022-11-20T06:18:46.924Z,8.50
2022-11-20T06:19:46.891Z,8.53
2022-11-20T06:20:46.850Z,8.46
2022-11-20T06:21:46.811Z,8.64
2022-11-20T06:22:46.739Z,8.61
2022-11-20T06:23:46.696Z,8.41
2022-11-20T06:24:46.655Z,8.53
2022-11-20T06:25:46.600Z,8.52
2022-11-20T06:26:46.551Z,8.53
2022-11-20T06:27:46.528Z,8.46
2022-11-20T06:28:46.512Z,8.60
2022-11-20T06:29:46.411Z,8.44
2022-11-20T06:30:46.366Z,8.54
2022-11-20T06:31:46.345Z,8.59
2022-11-20T06:32:46.287Z,8.52
2022-11-20T06:33:46.231Z,8.44
2022-11-20T06:34:46.179Z,8.49
2022-11-20T06:35:46.133Z,8.49
2022-11-20T06:36:46.090Z,8.49
2022-11-20T06:37:46.063Z,8.42
2022-11-20T06:38:45.994Z,8.53
2022-11-20T06:39:45.946Z,8.52
2022-11-20T06:40:45.898Z,8.60
2022-11-20T06:41:45.855Z,8.50
2022-11-20T06:42:45.809Z,8.52
2022-11-20T06:43:45.774Z,8.42
2022-11-20T06:44:45.713Z,8.39
2022-11-20T06:45:45.667Z,8.39
2022-11-20T06:46:45.618Z,8.31
2022-11-20T06:47:45.570Z,8.17
2022-11-20T06:48:45.528Z,8.02
2022-11-20T06:49:45.655Z,8.03
2022-11-20T06:50:45.432Z,7.93
2022-11-20T06:51:45.387Z,7.96
2022-11-20T06:52:45.335Z,7.96
2022-11-20T06:53:45.290Z,7.74
2022-11-20T06:54:45.243Z,7.72
2022-11-20T06:55:45.215Z,7.58
2022-11-20T06:56:45.153Z,7.53
2022-11-20T06:57:45.101Z,7.55
2022-11-20T06:58:45.055Z,7.58
2022-11-20T06:59:45.008Z,7.59
2022-11-20T07:00:45.016Z,7.50
2022-11-20T07:01:44.909Z,7.58
2022-11-20T07:02:44.866Z,7.51
2022-11-20T07:03:45.222Z,7.51
2022-11-20T07:04:44.769Z,7.44
2022-11-20T07:05:44.724Z,7.55
2022-11-20T07:06:44.701Z,7.53
2022-11-20T07:07:44.670Z,7.51
2022-11-20T07:08:44.583Z,7.55
2022-11-20T07:09:44.532Z,7.55
2022-11-20T07:10:44.489Z,7.41
2022-11-20T07:11:44.446Z,7.39
2022-11-20T07:12:44.423Z,7.51
2022-11-20T07:13:44.348Z,7.55
2022-11-20T07:14:44.304Z,7.41
2022-11-20T07:15:44.256Z,7.51
2022-11-20T07:16:44.205Z,7.39
2022-11-20T07:17:44.160Z,7.53
2022-11-20T07:18:49.941Z,7.50
2022-11-20T07:19:44.066Z,7.55
2022-11-20T07:20:44.017Z,7.50
2022-11-20T07:21:43.971Z,7.50
2022-11-20T07:22:43.926Z,7.55
2022-11-20T07:23:43.919Z,7.67
2022-11-20T07:24:46.164Z,7.59
2022-11-20T07:25:43.781Z,7.53
2022-11-20T07:26:43.731Z,7.55
2022-11-20T07:27:43.686Z,7.58
2022-11-20T07:28:43.641Z,7.74
2022-11-20T07:29:43.612Z,7.72
2022-11-20T07:30:43.551Z,7.75
2022-11-20T07:31:43.502Z,7.75
2022-11-20T07:32:43.452Z,7.77
2022-11-20T07:33:43.406Z,7.75
2022-11-20T07:34:43.363Z,7.90
2022-11-20T07:35:43.341Z,7.81
2022-11-20T07:36:43.264Z,7.90
2022-11-20T07:37:43.220Z,7.88
2022-11-20T07:38:43.172Z,7.88
2022-11-20T07:39:43.122Z,7.91
2022-11-20T07:40:43.102Z,7.93
2022-11-20T07:41:43.029Z,8.11
2022-11-20T07:42:42.985Z,8.16
2022-11-20T07:43:42.951Z,8.16
2022-11-20T07:44:42.893Z,8.09
2022-11-20T07:45:42.845Z,8.16
2022-11-20T07:46:42.798Z,8.16
2022-11-20T07:47:42.751Z,8.24
2022-11-20T07:48:42.706Z,8.26
2022-11-20T07:49:42.684Z,8.32
2022-11-20T07:50:42.640Z,8.35
2022-11-20T07:51:42.570Z,8.49
2022-11-20T07:52:42.521Z,8.44
2022-11-20T07:53:42.493Z,8.41
2022-11-20T07:54:42.422Z,8.41
2022-11-20T07:55:42.380Z,8.41
2022-11-20T07:56:42.334Z,8.50
2022-11-20T07:57:42.285Z,8.66
2022-11-20T07:58:42.235Z,8.61
2022-11-20T07:59:42.212Z,8.69
2022-11-20T08:00:42.182Z,8.68
2022-11-20T08:01:42.102Z,8.72
2022-11-20T08:02:42.050Z,8.81
2022-11-20T08:03:42.035Z,8.78
2022-11-20T08:04:41.960Z,8.89
2022-11-20T08:05:41.912Z,8.93
2022-11-20T08:06:41.865Z,8.99
2022-11-20T08:07:41.949Z,9.02
2022-11-20T08:08:43.083Z,9.00
2022-11-20T08:09:41.748Z,9.12
2022-11-20T08:10:41.681Z,9.11
2022-11-20T08:11:41.635Z,9.12
2022-11-20T08:12:41.592Z,9.15
2022-11-20T08:13:41.545Z,9.16
2022-11-20T08:14:41.498Z,9.16
2022-11-20T08:15:41.470Z,9.09
2022-11-20T08:16:41.407Z,9.18
2022-11-20T08:17:41.360Z,9.09
2022-11-20T08:18:41.320Z,9.15
2022-11-20T08:19:41.271Z,9.19
2022-11-20T08:20:41.222Z,9.19
2022-11-20T08:21:41.213Z,9.29
2022-11-20T08:22:41.131Z,9.09
2022-11-20T08:23:41.084Z,9.22
2022-11-20T08:24:41.043Z,9.22
2022-11-20T08:25:40.998Z,9.27
2022-11-20T08:26:40.950Z,9.31
2022-11-20T08:27:41.073Z,9.39
2022-11-20T08:28:40.856Z,9.44
2022-11-20T08:29:40.805Z,9.47
2022-11-20T08:30:40.761Z,9.48
2022-11-20T08:31:40.716Z,9.51
2022-11-20T08:32:40.670Z,9.55
2022-11-20T08:33:40.667Z,9.66
2022-11-20T08:34:40.579Z,9.70
2022-11-20T08:35:40.530Z,9.76
2022-11-20T08:36:40.493Z,9.84
2022-11-20T08:37:40.439Z,9.77
2022-11-20T08:38:40.393Z,9.77
2022-11-20T08:39:40.359Z,9.85
2022-11-20T08:40:40.304Z,9.82
2022-11-20T08:41:40.251Z,9.99
2022-11-20T08:42:40.211Z,9.90
2022-11-20T08:43:40.165Z,9.95
2022-11-20T08:44:40.121Z,9.90
2022-11-20T08:45:40.090Z,10.06
2022-11-20T08:46:40.032Z,10.17
2022-11-20T08:47:39.981Z,10.30
2022-11-20T08:48:39.939Z,10.27
2022-11-20T08:49:39.891Z,10.31
2022-11-20T08:50:39.850Z,10.38
2022-11-20T08:51:39.820Z,10.42
2022-11-20T08:52:39.946Z,10.34
2022-11-20T08:53:39.707Z,10.41
2022-11-20T08:54:39.664Z,10.38
2022-11-20T08:55:39.619Z,10.38
2022-11-20T08:56:39.577Z,10.41
2022-11-20T08:57:39.702Z,10.59
2022-11-20T08:59:02.078Z,10.51
2022-11-20T09:00:07.188Z,10.48
2022-11-20T09:00:39.413Z,10.51
2022-11-20T09:01:39.341Z,10.53
2022-11-20T09:02:39.299Z,10.57
2022-11-20T09:03:39.264Z,10.48
2022-11-20T09:04:39.206Z,10.45
2022-11-20T09:05:39.165Z,10.42
2022-11-20T09:06:39.119Z,10.41
2022-11-20T09:07:39.117Z,10.41
2022-11-20T09:08:39.049Z,10.59
2022-11-20T09:09:38.998Z,10.55
2022-11-20T09:10:38.935Z,10.49
2022-11-20T09:11:38.887Z,10.46
2022-11-20T09:12:38.847Z,10.49
2022-11-20T09:13:38.800Z,10.57
2022-11-20T09:14:38.785Z,10.57
2022-11-20T09:15:38.736Z,10.58
2022-11-20T09:16:38.667Z,10.55
2022-11-20T09:17:38.618Z,10.64
2022-11-20T09:18:38.574Z,10.68
2022-11-20T09:19:38.528Z,10.80
2022-11-20T09:20:38.505Z,10.87
2022-11-20T09:21:38.605Z,10.82
2022-11-20T09:22:38.387Z,10.82
2022-11-20T09:23:38.342Z,10.90
2022-11-20T09:24:38.299Z,10.71
2022-11-20T09:25:38.256Z,10.62
2022-11-20T09:26:38.213Z,10.59
2022-11-20T09:27:38.176Z,10.68
2022-11-20T09:28:38.118Z,10.75
2022-11-20T09:29:38.076Z,10.84
2022-11-20T09:30:38.029Z,11.04
2022-11-20T09:31:37.981Z,10.83
2022-11-20T09:32:37.933Z,10.76
2022-11-20T09:33:37.910Z,10.69
2022-11-20T09:34:37.846Z,10.77
2022-11-20T09:35:37.799Z,10.89
2022-11-20T09:36:37.757Z,10.92
2022-11-20T09:37:37.713Z,10.94
2022-11-20T09:38:37.669Z,11.00
2022-11-20T09:39:37.629Z,11.02
2022-11-20T09:40:37.576Z,11.10
2022-11-20T09:41:37.534Z,11.15
2022-11-20T09:42:37.492Z,11.27
2022-11-20T09:43:39.836Z,11.34
2022-11-20T09:44:37.417Z,11.37
2022-11-20T09:45:37.352Z,11.60
2022-11-20T09:46:37.303Z,11.77
2022-11-20T09:47:37.264Z,11.63
2022-11-20T09:48:37.217Z,11.62
2022-11-20T09:49:37.169Z,11.62
2022-11-20T09:50:37.168Z,11.70
2022-11-20T09:51:37.082Z,11.56
2022-11-20T09:52:37.043Z,11.60
2022-11-20T09:53:36.990Z,11.44
2022-11-20T09:54:36.948Z,11.44
2022-11-20T09:55:36.903Z,11.52
2022-11-20T09:56:36.884Z,11.53
2022-11-20T09:57:36.814Z,11.58
2022-11-20T09:58:36.773Z,11.41
2022-11-20T09:59:36.727Z,11.35
2022-11-20T10:00:36.741Z,11.45
2022-11-20T10:01:36.656Z,11.43
2022-11-20T10:02:36.618Z,11.48
2022-11-20T10:03:36.546Z,11.52
2022-11-20T10:04:39.617Z,11.49
2022-11-20T10:05:36.455Z,11.51
2022-11-20T10:06:36.413Z,11.62
2022-11-20T10:07:36.414Z,11.60
2022-11-20T10:08:36.316Z,11.62
2022-11-20T10:09:36.276Z,11.65
2022-11-20T10:10:41.011Z,11.67
2022-11-20T10:11:36.182Z,11.56
2022-11-20T10:12:36.142Z,11.58
2022-11-20T10:13:36.108Z,11.53
2022-11-20T10:14:36.054Z,11.40
2022-11-20T10:15:36.005Z,11.51
2022-11-20T10:16:40.786Z,11.56
2022-11-20T10:17:35.914Z,11.70
2022-11-20T10:18:35.872Z,11.78
2022-11-20T10:19:35.846Z,12.08
2022-11-20T10:20:35.783Z,12.28
2022-11-20T10:21:35.737Z,12.61
2022-11-20T10:22:35.693Z,13.20
2022-11-20T10:23:35.652Z,13.54
2022-11-20T10:24:35.609Z,14.00
2022-11-20T10:25:35.596Z,14.56
2022-11-20T10:26:35.521Z,15.02
2022-11-20T10:27:35.477Z,15.57
2022-11-20T10:28:35.434Z,15.90
2022-11-20T10:29:35.400Z,15.99
2022-11-20T10:30:35.349Z,15.81
2022-11-20T10:31:35.332Z,15.65
2022-11-20T10:32:35.268Z,15.52
2022-11-20T10:33:57.170Z,15.17
2022-11-20T10:34:35.216Z,15.02
2022-11-20T10:35:35.137Z,14.92
2022-11-20T10:36:35.099Z,14.77
2022-11-20T10:37:35.058Z,14.67
2022-11-20T10:38:35.014Z,14.55
2022-11-20T10:39:34.972Z,14.48
2022-11-20T10:40:34.965Z,14.40
2022-11-20T10:41:37.040Z,14.51
2022-11-20T10:42:34.844Z,14.63
2022-11-20T10:43:34.799Z,14.53
2022-11-20T10:44:34.761Z,14.62
2022-11-20T10:45:34.744Z,14.85
2022-11-20T10:46:34.675Z,14.81
2022-11-20T10:47:34.631Z,14.74
2022-11-20T10:48:34.593Z,14.62
2022-11-20T10:49:34.567Z,14.58
2022-11-20T10:50:34.508Z,14.59
2022-11-20T10:51:34.463Z,14.43
2022-11-20T10:52:34.418Z,14.18
2022-11-20T10:53:34.375Z,13.98
2022-11-20T10:54:34.331Z,13.79
2022-11-20T10:55:34.329Z,13.65
2022-11-20T10:56:34.247Z,13.65
2022-11-20T10:57:34.205Z,13.67
2022-11-20T10:58:34.160Z,13.54
2022-11-20T10:59:34.119Z,13.50
2022-11-20T11:00:34.075Z,13.73
2022-11-20T11:01:34.130Z,13.82
2022-11-20T11:02:33.988Z,13.85
2022-11-20T11:03:33.949Z,13.73
2022-11-20T11:04:33.903Z,13.85
2022-11-20T11:05:33.862Z,13.91
2022-11-20T11:06:33.819Z,14.11
2022-11-20T11:07:33.833Z,14.26
2022-11-20T11:08:33.732Z,14.22
2022-11-20T11:09:33.691Z,14.74
2022-11-20T11:10:33.648Z,15.15
2022-11-20T11:11:33.606Z,15.50
2022-11-20T11:12:33.565Z,15.88
2022-11-20T11:13:33.538Z,16.21
2022-11-20T11:14:33.478Z,16.51
2022-11-20T11:15:33.438Z,16.97
2022-11-20T11:16:33.394Z,17.24
2022-11-20T11:17:33.361Z,17.28
2022-11-20T11:18:33.315Z,17.39
2022-11-20T11:19:33.315Z,17.71
2022-11-20T11:20:33.238Z,17.41
2022-11-20T11:21:33.192Z,16.94
2022-11-20T11:22:33.158Z,16.76
2022-11-20T11:23:33.114Z,16.68
2022-11-20T11:24:44.947Z,16.66
2022-11-20T11:25:33.052Z,16.66
2022-11-20T11:26:32.994Z,16.39
2022-11-20T11:27:32.953Z,16.25
2022-11-20T11:28:32.908Z,16.28
2022-11-20T11:29:32.867Z,16.09
2022-11-20T11:30:32.834Z,15.90
2022-11-20T11:31:32.813Z,15.76
2022-11-20T11:32:32.746Z,15.59
2022-11-20T11:33:32.704Z,15.41
2022-11-20T11:34:32.660Z,15.37
2022-11-20T11:35:32.618Z,15.37
2022-11-20T11:36:32.577Z,15.45
2022-11-20T11:37:32.559Z,15.07
2022-11-20T11:38:32.490Z,14.92
2022-11-20T11:39:32.452Z,15.04
2022-11-20T11:40:32.426Z,15.17
2022-11-20T11:41:32.369Z,15.07
2022-11-20T11:42:32.325Z,15.08
2022-11-20T11:43:36.762Z,15.07
2022-11-20T11:44:32.240Z,15.15
2022-11-20T11:45:32.200Z,15.25
2022-11-20T11:46:33.171Z,15.44
2022-11-20T11:47:32.112Z,15.41
2022-11-20T11:48:32.070Z,15.51
2022-11-20T11:49:32.033Z,15.57
2022-11-20T11:50:31.987Z,15.60
2022-11-20T11:51:31.965Z,15.66
2022-11-20T11:52:31.924Z,15.48
2022-11-20T11:53:31.862Z,15.37
2022-11-20T11:54:31.820Z,15.23
2022-11-20T11:55:31.779Z,15.15
2022-11-20T11:56:31.733Z,15.14
2022-11-20T11:57:31.731Z,15.26
2022-11-20T11:58:31.671Z,14.92
2022-11-20T11:59:31.606Z,14.81
2022-11-20T12:00:31.561Z,14.61
2022-11-20T12:01:31.521Z,14.61
2022-11-20T12:02:31.550Z,14.52
2022-11-20T12:03:31.451Z,14.56
2022-11-20T12:04:31.396Z,14.53
2022-11-20T12:05:31.354Z,14.56
2022-11-20T12:06:31.305Z,14.34
2022-11-20T12:07:46.234Z,14.41
2022-11-20T12:08:31.253Z,14.07
2022-11-20T12:09:31.201Z,14.00
2022-11-20T12:10:31.161Z,14.01
2022-11-20T12:11:31.089Z,13.91
2022-11-20T12:12:31.047Z,13.89
2022-11-20T12:13:31.003Z,13.76
2022-11-20T12:14:30.977Z,13.68
2022-11-20T12:15:30.915Z,13.61
2022-11-20T12:16:30.874Z,13.52
2022-11-20T12:17:30.829Z,13.31
2022-11-20T12:18:30.789Z,13.27
2022-11-20T12:19:30.742Z,13.12
2022-11-20T12:20:30.885Z,13.05
2022-11-20T12:21:30.655Z,12.90
2022-11-20T12:22:30.612Z,12.70
2022-11-20T12:23:30.570Z,12.65
2022-11-20T12:24:30.521Z,12.61
2022-11-20T12:25:30.481Z,12.63
2022-11-20T12:26:30.463Z,12.66
2022-11-20T12:27:30.392Z,12.65
2022-11-20T12:28:30.349Z,12.61
2022-11-20T12:29:30.308Z,12.80
2022-11-20T12:30:30.256Z,12.75
2022-11-20T12:31:30.236Z,12.69
2022-11-20T12:32:30.168Z,12.75
2022-11-20T12:33:30.129Z,12.83
2022-11-20T12:34:30.077Z,12.73
2022-11-20T12:35:30.034Z,12.84
2022-11-20T12:36:29.987Z,13.02
2022-11-20T12:37:29.973Z,13.08
2022-11-20T12:38:29.908Z,13.16
2022-11-20T12:39:29.855Z,13.27
2022-11-20T12:40:29.815Z,13.33
2022-11-20T12:41:29.789Z,13.52
2022-11-20T12:42:29.726Z,13.73
2022-11-20T12:43:29.684Z,13.73
2022-11-20T12:44:29.636Z,13.83
2022-11-20T12:45:29.596Z,13.87
2022-11-20T12:46:29.548Z,14.12
2022-11-20T12:47:29.534Z,14.43
2022-11-20T12:48:29.487Z,14.81
2022-11-20T12:49:29.419Z,15.18
2022-11-20T12:50:30.532Z,15.63
2022-11-20T12:51:29.360Z,15.98
2022-11-20T12:52:29.310Z,16.43
2022-11-20T12:53:29.252Z,16.73
2022-11-20T12:54:29.209Z,17.23
2022-11-20T12:55:29.165Z,17.32
2022-11-20T12:56:29.131Z,17.71
2022-11-20T12:57:29.087Z,17.98
2022-11-20T12:58:29.066Z,18.41
2022-11-20T12:59:29.002Z,18.91
2022-11-20T13:00:28.975Z,19.22
2022-11-20T13:01:29.058Z,19.66
2022-11-20T13:02:28.882Z,19.78
2022-11-20T13:03:28.847Z,19.87
2022-11-20T13:04:28.834Z,19.74
2022-11-20T13:05:28.771Z,19.62
2022-11-20T13:06:28.727Z,19.41
2022-11-20T13:07:28.743Z,19.23
2022-11-20T13:08:28.648Z,19.32
2022-11-20T13:09:28.608Z,19.26
2022-11-20T13:10:28.600Z,19.08
2022-11-20T13:11:28.529Z,18.85
2022-11-20T13:12:28.489Z,18.79